Time;durP1;ratioP1;P1;durP2;ratioP2;P2;SDS_P1;SDS_P2;PMS_P1;PMS_P2;Temp;Humidity;BMP_temperature;BMP_pressure;BME280_temperature;BME280_humidity;BME280_pressure;Samples;Min_cycle;Max_cycle;Signal;HPM_P1;HPM_P2
2022/01/05 00:00:06;;;;;;;;;;;;;;;;;;2108282;28;1824;-73
2022/01/05 00:01:06;;;;;;;;;;;;;;;;;;2111563;28;1692;-74
2022/01/05 00:02:09;;;;;;;;;;;;;;;;;;2112880;28;1353;-74
2022/01/05 00:03:11;;;;;;;;;;;;;;;;;;2110512;28;1916;-74
2022/01/05 00:04:13;;;;;;;;;;;;;;;;;;2108156;28;1707;-73
2022/01/05 00:05:14;;;;;;;;;;;;;;;;;;2108642;28;1450;-73
2022/01/05 00:06:16;;;;;;;;;;;;;;;;;;2108154;28;1691;-74
2022/01/05 00:07:16;;;;;;;;;;;;;;;;;;2108637;28;1354;-74
2022/01/05 00:08:20;;;;;;;;;;;;;;;;;;2108820;28;1551;-72
2022/01/05 00:09:20;;;;;;;;;;;;;;;;;;2111340;28;1717;-74
2022/01/05 00:10:25;;;;;;;;;;;;;;;;;;2112729;28;1392;-74
2022/01/05 00:11:27;;;;;;;;;;;;;;;;;;2106605;28;1357;-74
2022/01/05 00:12:30;;;;;;;;;;;;;;;;;;2105810;28;1706;-74
2022/01/05 00:13:32;;;;;;;;;;;;;;;;;;2106590;28;1392;-74
2022/01/05 00:14:34;;;;;;;;;;;;;;;;;;2106769;28;1237;-74
2022/01/05 00:15:35;;;;;;;;;;;;;;;;;;2106574;28;1437;-74
2022/01/05 00:16:38;;;;;;;;;;;;;;;;;;2107595;28;1910;-74
2022/01/05 00:17:39;;;;;;;;;;;;;;;;;;2112261;28;1401;-74
2022/01/05 00:18:41;;;;;;;;;;;;;;;;;;2107038;28;1707;-74
2022/01/05 00:19:45;;;;;;;;;;;;;;;;;;2107664;28;1375;-74
2022/01/05 00:20:46;;;;;;;;;;;;;;;;;;2107869;28;1444;-74
2022/01/05 00:21:48;;;;;;;;;;;;;;;;;;2107583;28;2257;-73
2022/01/05 00:22:49;;;;;;;;;;;;;;;;;;2108525;28;1832;-74
2022/01/05 00:23:50;;;;;;;;;;;;;;;;;;2108740;28;1396;-73
2022/01/05 00:24:51;;;;;;;;;;;;;;;;;;2109140;28;1156;-74
2022/01/05 00:25:54;;;;;;;;;;;;;;;;;;2108593;28;1318;-74
2022/01/05 00:26:56;;;;;;;;;;;;;;;;;;2111148;28;2010;-73
2022/01/05 00:27:56;;;;;;;;;;;;;;;;;;2108457;28;1397;-73
2022/01/05 00:28:58;;;;;;;;;;;;;;;;;;2108669;28;1418;-73
2022/01/05 00:29:59;;;;;;;;;;;;;;;;;;2111445;28;1718;-73
2022/01/05 00:31:01;;;;;;;;;;;;;;;;;;2112201;28;1380;-73
2022/01/05 00:32:05;;;;;;;;;;;;;;;;;;2112337;28;1234;-73
2022/01/05 00:33:07;;;;;;;;;;;;;;;;;;2113026;28;1293;-73
2022/01/05 00:34:08;;;;;;;;;;;;;;;;;;2112680;28;1394;-72
2022/01/05 00:35:11;;;;;;;;;;;;;;;;;;2113394;28;1382;-73
2022/01/05 00:36:14;;;;;;;;;;;;;;;;;;2110138;28;1707;-74
2022/01/05 00:37:20;;;;;;;;;;;;;;;;;;2100210;28;1981;-74
2022/01/05 00:38:22;;;;;;;;;;;;;;;;;;2111975;28;1400;-74
2022/01/05 00:39:24;;;;;;;;;;;;;;;;;;2110788;28;1743;-73
2022/01/05 00:40:24;;;;;;;;;;;;;;;;;;2107821;28;1342;-73
2022/01/05 00:41:27;;;;;;;;;;;;;;;;;;2108545;28;1436;-72
2022/01/05 00:42:28;;;;;;;;;;;;;;;;;;2108039;28;1690;-73
2022/01/05 00:43:30;;;;;;;;;;;;;;;;;;2109402;28;1465;-73
2022/01/05 00:44:30;;;;;;;;;;;;;;;;;;2112077;28;1441;-73
2022/01/05 00:45:32;;;;;;;;;;;;;;;;;;2108287;28;1762;-73
2022/01/05 00:46:33;;;;;;;;;;;;;;;;;;2107880;28;1302;-73
2022/01/05 00:47:34;;;;;;;;;;;;;;;;;;2107608;28;1460;-73
2022/01/05 00:48:35;;;;;;;;;;;;;;;;;;2108170;28;1743;-74
2022/01/05 00:49:37;;;;;;;;;;;;;;;;;;2108184;28;1372;-73
2022/01/05 00:50:38;;;;;;;;;;;;;;;;;;2108516;28;1461;-73
2022/01/05 00:51:39;;;;;;;;;;;;;;;;;;2112650;28;1302;-74
2022/01/05 00:52:40;;;;;;;;;;;;;;;;;;2109619;28;2224;-73
2022/01/05 00:53:42;;;;;;;;;;;;;;;;;;2112640;28;1419;-73
2022/01/05 00:54:43;;;;;;;;;;;;;;;;;;2106992;28;1681;-73
2022/01/05 00:55:45;;;;;;;;;;;;;;;;;;2106694;28;1351;-73
2022/01/05 00:56:48;;;;;;;;;;;;;;;;;;2106638;28;1975;-73
2022/01/05 00:57:48;;;;;;;;;;;;;;;;;;2106146;28;1934;-73
2022/01/05 00:58:50;;;;;;;;;;;;;;;;;;2106571;28;1305;-72
2022/01/05 00:59:50;;;;;;;;;;;;;;;;;;2106410;28;2077;-72
2022/01/05 01:00:52;;;;;;;;;;;;;;;;;;2107043;28;1084;-73
2022/01/05 01:01:53;;;;;;;;;;;;;;;;;;2107991;28;1266;-73
2022/01/05 01:02:54;;;;;;;;;;;;;;;;;;2109092;28;1766;-74
2022/01/05 01:03:55;;;;;;;;;;;;;;;;;;2109132;28;1264;-73
2022/01/05 01:04:56;;;;;;;;;;;;;;;;;;2109601;28;1329;-73
2022/01/05 01:05:58;;;;;;;;;;;;;;;;;;2109424;28;1376;-73
2022/01/05 01:07:00;;;;;;;;;;;;;;;;;;2109395;28;1171;-73
2022/01/05 01:08:01;;;;;;;;;;;;;;;;;;2109628;28;1202;-73
2022/01/05 01:09:03;;;;;;;;;;;;;;;;;;2109525;28;1345;-73
2022/01/05 01:10:04;;;;;;;;;;;;;;;;;;2109312;28;1254;-72
2022/01/05 01:11:06;;;;;;;;;;;;;;;;;;2109461;28;1242;-73
2022/01/05 01:12:09;;;;;;;;;;;;;;;;;;2108923;28;1746;-73
2022/01/05 01:13:14;;;;;;;;;;;;;;;;;;2109505;28;1396;-74
2022/01/05 01:14:15;;;;;;;;;;;;;;;;;;2109234;28;1354;-73
2022/01/05 01:15:17;;;;;;;;;;;;;;;;;;2114927;27;1298;-73
2022/01/05 01:16:18;;;;;;;;;;;;;;;;;;2112247;28;1239;-73
2022/01/05 01:17:19;;;;;;;;;;;;;;;;;;2114952;28;1971;-74
2022/01/05 01:18:20;;;;;;;;;;;;;;;;;;2113019;28;2015;-73
2022/01/05 01:19:21;;;;;;;;;;;;;;;;;;2112218;28;1275;-72
2022/01/05 01:20:22;;;;;;;;;;;;;;;;;;2114497;27;1348;-73
2022/01/05 01:21:24;;;;;;;;;;;;;;;;;;2113614;28;1666;-73
2022/01/05 01:22:27;;;;;;;;;;;;;;;;;;2113233;28;1355;-73
2022/01/05 01:23:29;;;;;;;;;;;;;;;;;;2113703;28;1386;-72
2022/01/05 01:24:29;;;;;;;;;;;;;;;;;;2113954;28;1317;-73
2022/01/05 01:25:31;;;;;;;;;;;;;;;;;;2113379;28;1467;-73
2022/01/05 01:26:33;;;;;;;;;;;;;;;;;;2113640;28;1270;-73
2022/01/05 01:27:37;;;;;;;;;;;;;;;;;;2111365;28;1734;-73
2022/01/05 01:28:38;;;;;;;;;;;;;;;;;;2112415;28;1297;-73
2022/01/05 01:29:39;;;;;;;;;;;;;;;;;;2114738;28;1416;-73
2022/01/05 01:30:40;;;;;;;;;;;;;;;;;;2112793;28;1321;-72
2022/01/05 01:31:41;;;;;;;;;;;;;;;;;;2114771;28;1277;-73
2022/01/05 01:32:42;;;;;;;;;;;;;;;;;;2112687;28;1324;-73
2022/01/05 01:33:44;;;;;;;;;;;;;;;;;;2113625;28;2097;-74
2022/01/05 01:34:44;;;;;;;;;;;;;;;;;;2113987;28;1281;-72
2022/01/05 01:35:46;;;;;;;;;;;;;;;;;;2113203;28;1290;-74
2022/01/05 01:36:46;;;;;;;;;;;;;;;;;;2113473;28;1907;-73
2022/01/05 01:37:48;;;;;;;;;;;;;;;;;;2113609;28;1980;-72
2022/01/05 01:38:49;;;;;;;;;;;;;;;;;;2113689;28;1289;-74
2022/01/05 01:39:50;;;;;;;;;;;;;;;;;;2113496;28;1339;-74
2022/01/05 01:40:51;;;;;;;;;;;;;;;;;;2114051;28;1388;-74
2022/01/05 01:41:52;;;;;;;;;;;;;;;;;;2112672;28;1722;-73
2022/01/05 01:42:54;;;;;;;;;;;;;;;;;;2114299;28;1242;-74
2022/01/05 01:43:56;;;;;;;;;;;;;;;;;;2112630;28;1336;-74
2022/01/05 01:44:56;;;;;;;;;;;;;;;;;;2114858;28;1266;-74
2022/01/05 01:45:58;;;;;;;;;;;;;;;;;;2117846;28;954;-74
2022/01/05 01:46:58;;;;;;;;;;;;;;;;;;2117458;28;969;-74
2022/01/05 01:48:00;;;;;;;;;;;;;;;;;;2115494;28;1867;-74
2022/01/05 01:49:02;;;;;;;;;;;;;;;;;;2109484;28;1052;-74
2022/01/05 01:50:02;;;;;;;;;;;;;;;;;;2108871;28;965;-74
2022/01/05 01:51:04;;;;;;;;;;;;;;;;;;2109251;28;826;-74
2022/01/05 01:52:05;;;;;;;;;;;;;;;;;;2108946;28;826;-74
2022/01/05 01:53:07;;;;;;;;;;;;;;;;;;2109100;28;782;-74
2022/01/05 01:54:07;;;;;;;;;;;;;;;;;;2109196;28;922;-74
2022/01/05 01:55:09;;;;;;;;;;;;;;;;;;2109388;28;1049;-74
2022/01/05 01:56:12;;;;;;;;;;;;;;;;;;2108789;28;870;-74
2022/01/05 01:57:13;;;;;;;;;;;;;;;;;;2108364;28;1987;-73
2022/01/05 01:58:17;;;;;;;;;;;;;;;;;;2108848;28;1008;-74
2022/01/05 01:59:17;;;;;;;;;;;;;;;;;;2108853;28;945;-74
2022/01/05 02:00:19;;;;;;;;;;;;;;;;;;2108174;28;1864;-74
2022/01/05 02:01:20;;;;;;;;;;;;;;;;;;2108773;28;890;-73
2022/01/05 02:02:21;;;;;;;;;;;;;;;;;;2108873;28;1034;-73
2022/01/05 02:03:22;;;;;;;;;;;;;;;;;;2108638;28;1919;-72
2022/01/05 02:04:24;;;;;;;;;;;;;;;;;;2108831;28;920;-73
2022/01/05 02:05:24;;;;;;;;;;;;;;;;;;2109020;28;808;-73
2022/01/05 02:06:26;;;;;;;;;;;;;;;;;;2108720;28;1061;-73
2022/01/05 02:07:26;;;;;;;;;;;;;;;;;;2109018;28;996;-72
2022/01/05 02:08:28;;;;;;;;;;;;;;;;;;2109074;28;925;-73
2022/01/05 02:09:29;;;;;;;;;;;;;;;;;;2108529;28;1823;-73
2022/01/05 02:10:30;;;;;;;;;;;;;;;;;;2108971;28;930;-72
2022/01/05 02:11:31;;;;;;;;;;;;;;;;;;2109603;28;1064;-73
2022/01/05 02:12:33;;;;;;;;;;;;;;;;;;2109063;28;2081;-73
2022/01/05 02:13:36;;;;;;;;;;;;;;;;;;2107867;28;839;-73
2022/01/05 02:14:37;;;;;;;;;;;;;;;;;;2108207;28;1083;-73
2022/01/05 02:15:40;;;;;;;;;;;;;;;;;;2107692;28;1837;-72
2022/01/05 02:16:44;;;;;;;;;;;;;;;;;;2108152;28;826;-73
2022/01/05 02:17:54;;;;;;;;;;;;;;;;;;2108148;28;1975;-73
2022/01/05 02:19:00;;;;;;;;;;;;;;;;;;2116205;28;778;-72
2022/01/05 02:20:11;;;;;;;;;;;;;;;;;;2116744;27;938;-73
2022/01/05 02:21:14;;;;;;;;;;;;;;;;;;2113119;28;1915;-73
2022/01/05 02:22:17;;;;;;;;;;;;;;;;;;2108232;28;898;-73
2022/01/05 02:23:18;;;;;;;;;;;;;;;;;;2108097;28;914;-72
2022/01/05 02:24:19;;;;;;;;;;;;;;;;;;2110748;28;1911;-73
2022/01/05 02:25:20;;;;;;;;;;;;;;;;;;2116572;28;1022;-73
2022/01/05 02:26:22;;;;;;;;;;;;;;;;;;2116648;28;858;-73
2022/01/05 02:27:22;;;;;;;;;;;;;;;;;;2111444;28;1919;-73
2022/01/05 02:28:24;;;;;;;;;;;;;;;;;;2108273;28;908;-73
2022/01/05 02:29:24;;;;;;;;;;;;;;;;;;2108069;28;906;-73
2022/01/05 02:30:27;;;;;;;;;;;;;;;;;;2107155;28;2003;-73
2022/01/05 02:31:27;;;;;;;;;;;;;;;;;;2107445;28;934;-73
2022/01/05 02:32:29;;;;;;;;;;;;;;;;;;2108066;28;898;-73
2022/01/05 02:33:30;;;;;;;;;;;;;;;;;;2112098;28;1851;-73
2022/01/05 02:34:31;;;;;;;;;;;;;;;;;;2116499;28;898;-73
2022/01/05 02:35:32;;;;;;;;;;;;;;;;;;2116581;28;898;-73
2022/01/05 02:36:35;;;;;;;;;;;;;;;;;;2109935;28;2076;-72
2022/01/05 02:37:39;;;;;;;;;;;;;;;;;;2108073;28;1981;-73
2022/01/05 02:38:40;;;;;;;;;;;;;;;;;;2107744;28;1332;-72
2022/01/05 02:39:41;;;;;;;;;;;;;;;;;;2107176;28;1208;-73
2022/01/05 02:40:43;;;;;;;;;;;;;;;;;;2107354;28;858;-73
2022/01/05 02:41:44;;;;;;;;;;;;;;;;;;2108161;28;871;-72
2022/01/05 02:42:45;;;;;;;;;;;;;;;;;;2114087;28;1816;-73
2022/01/05 02:43:47;;;;;;;;;;;;;;;;;;2116518;28;831;-73
2022/01/05 02:44:47;;;;;;;;;;;;;;;;;;2116456;28;843;-72
2022/01/05 02:45:49;;;;;;;;;;;;;;;;;;2114797;28;1840;-72
2022/01/05 02:46:50;;;;;;;;;;;;;;;;;;2116650;27;922;-73
2022/01/05 02:47:51;;;;;;;;;;;;;;;;;;2116153;28;2167;-73
2022/01/05 02:48:53;;;;;;;;;;;;;;;;;;2107763;28;886;-73
2022/01/05 02:49:57;;;;;;;;;;;;;;;;;;2107948;28;941;-72
2022/01/05 02:50:59;;;;;;;;;;;;;;;;;;2107341;28;1840;-73
2022/01/05 02:52:01;;;;;;;;;;;;;;;;;;2108074;28;997;-72
2022/01/05 02:53:03;;;;;;;;;;;;;;;;;;2107957;28;1108;-72
2022/01/05 02:54:04;;;;;;;;;;;;;;;;;;2107108;28;1844;-72
2022/01/05 02:55:06;;;;;;;;;;;;;;;;;;2107792;28;1422;-72
2022/01/05 02:56:08;;;;;;;;;;;;;;;;;;2107973;28;1240;-72
2022/01/05 02:57:08;;;;;;;;;;;;;;;;;;2108845;28;1935;-72
2022/01/05 02:58:10;;;;;;;;;;;;;;;;;;2116211;28;1910;-73
2022/01/05 02:59:11;;;;;;;;;;;;;;;;;;2116402;28;1031;-73
2022/01/05 03:00:13;;;;;;;;;;;;;;;;;;2112835;28;2185;-73
2022/01/05 03:01:14;;;;;;;;;;;;;;;;;;2107956;28;768;-72
2022/01/05 03:02:15;;;;;;;;;;;;;;;;;;2107944;28;1468;-72
2022/01/05 03:03:16;;;;;;;;;;;;;;;;;;2107467;28;1892;-73
2022/01/05 03:04:17;;;;;;;;;;;;;;;;;;2107687;28;1006;-72
2022/01/05 03:05:19;;;;;;;;;;;;;;;;;;2107874;28;970;-73
2022/01/05 03:06:22;;;;;;;;;;;;;;;;;;2107361;28;2021;-72
2022/01/05 03:07:24;;;;;;;;;;;;;;;;;;2107792;28;784;-73
2022/01/05 03:08:25;;;;;;;;;;;;;;;;;;2107626;28;980;-73
2022/01/05 03:09:26;;;;;;;;;;;;;;;;;;2107696;28;891;-73
2022/01/05 03:10:28;;;;;;;;;;;;;;;;;;2107788;28;1117;-72
2022/01/05 03:11:28;;;;;;;;;;;;;;;;;;2107864;28;899;-73
2022/01/05 03:12:30;;;;;;;;;;;;;;;;;;2107592;28;2076;-72
2022/01/05 03:13:31;;;;;;;;;;;;;;;;;;2107922;28;887;-73
2022/01/05 03:14:32;;;;;;;;;;;;;;;;;;2107947;28;954;-72
2022/01/05 03:15:35;;;;;;;;;;;;;;;;;;2111929;28;1921;-72
2022/01/05 03:16:35;;;;;;;;;;;;;;;;;;2116157;28;851;-73
2022/01/05 03:17:37;;;;;;;;;;;;;;;;;;2116142;28;933;-73
2022/01/05 03:18:38;;;;;;;;;;;;;;;;;;2114762;28;1805;-73
2022/01/05 03:19:39;;;;;;;;;;;;;;;;;;2115310;28;1204;-73
2022/01/05 03:20:40;;;;;;;;;;;;;;;;;;2115610;28;822;-73
2022/01/05 03:21:42;;;;;;;;;;;;;;;;;;2115982;28;914;-73
2022/01/05 03:22:44;;;;;;;;;;;;;;;;;;2116296;28;870;-73
2022/01/05 03:23:46;;;;;;;;;;;;;;;;;;2116227;28;928;-73
2022/01/05 03:24:47;;;;;;;;;;;;;;;;;;2115810;28;1092;-73
2022/01/05 03:25:48;;;;;;;;;;;;;;;;;;2115254;28;890;-73
2022/01/05 03:26:49;;;;;;;;;;;;;;;;;;2116140;28;851;-73
2022/01/05 03:27:51;;;;;;;;;;;;;;;;;;2107012;28;1868;-73
2022/01/05 03:28:52;;;;;;;;;;;;;;;;;;2107716;28;807;-73
2022/01/05 03:29:54;;;;;;;;;;;;;;;;;;2107234;28;1882;-72
2022/01/05 03:30:54;;;;;;;;;;;;;;;;;;2115438;28;975;-73
2022/01/05 03:31:56;;;;;;;;;;;;;;;;;;2115287;28;1847;-72
2022/01/05 03:34:19;;;;;;;;;;;;;;;;;;2107105;28;1294;-73
2022/01/05 03:35:20;;;;;;;;;;;;;;;;;;2107623;28;791;-73
2022/01/05 03:36:21;;;;;;;;;;;;;;;;;;2107122;28;1848;-73
2022/01/05 03:37:22;;;;;;;;;;;;;;;;;;2107655;28;976;-72
2022/01/05 03:38:28;;;;;;;;;;;;;;;;;;2107508;28;1909;-73
2022/01/05 03:39:28;;;;;;;;;;;;;;;;;;2108030;28;2044;-72
2022/01/05 03:40:30;;;;;;;;;;;;;;;;;;2107549;28;890;-71
2022/01/05 03:41:32;;;;;;;;;;;;;;;;;;2107670;28;997;-72
2022/01/05 03:42:32;;;;;;;;;;;;;;;;;;2106883;28;1892;-72
2022/01/05 03:43:34;;;;;;;;;;;;;;;;;;2107540;28;910;-72
2022/01/05 03:44:35;;;;;;;;;;;;;;;;;;2107436;28;1001;-72
2022/01/05 03:45:37;;;;;;;;;;;;;;;;;;2112392;28;1911;-72
2022/01/05 03:46:37;;;;;;;;;;;;;;;;;;2115838;28;933;-73
2022/01/05 03:47:39;;;;;;;;;;;;;;;;;;2115948;28;944;-72
2022/01/05 03:48:41;;;;;;;;;;;;;;;;;;2108443;28;1876;-72
2022/01/05 03:49:41;;;;;;;;;;;;;;;;;;2107559;28;918;-72
2022/01/05 03:50:43;;;;;;;;;;;;;;;;;;2107426;28;874;-73
2022/01/05 03:51:45;;;;;;;;;;;;;;;;;;2107589;28;1005;-73
2022/01/05 03:52:47;;;;;;;;;;;;;;;;;;2107548;28;1131;-73
2022/01/05 03:53:50;;;;;;;;;;;;;;;;;;2107455;28;1034;-72
2022/01/05 03:54:50;;;;;;;;;;;;;;;;;;2106730;28;1820;-72
2022/01/05 03:55:52;;;;;;;;;;;;;;;;;;2107562;28;886;-72
2022/01/05 03:56:52;;;;;;;;;;;;;;;;;;2106709;28;1843;-72
2022/01/05 03:57:54;;;;;;;;;;;;;;;;;;2107479;28;1914;-73
2022/01/05 03:58:54;;;;;;;;;;;;;;;;;;2107374;28;1092;-72
2022/01/05 03:59:56;;;;;;;;;;;;;;;;;;2106935;28;2040;-72
2022/01/05 04:00:57;;;;;;;;;;;;;;;;;;2107208;28;950;-73
2022/01/05 04:01:58;;;;;;;;;;;;;;;;;;2107512;28;859;-72
2022/01/05 04:02:59;;;;;;;;;;;;;;;;;;2106720;28;1835;-72
2022/01/05 04:04:00;;;;;;;;;;;;;;;;;;2107435;28;877;-73
2022/01/05 04:05:02;;;;;;;;;;;;;;;;;;2107399;28;834;-73
2022/01/05 04:06:05;;;;;;;;;;;;;;;;;;2107265;28;1974;-72
2022/01/05 04:07:05;;;;;;;;;;;;;;;;;;2107416;28;953;-73
2022/01/05 04:08:07;;;;;;;;;;;;;;;;;;2107494;28;795;-73
2022/01/05 04:09:10;;;;;;;;;;;;;;;;;;2108159;28;2025;-73
2022/01/05 04:10:11;;;;;;;;;;;;;;;;;;2115839;28;973;-73
2022/01/05 04:11:12;;;;;;;;;;;;;;;;;;2115707;28;1115;-72
2022/01/05 04:12:13;;;;;;;;;;;;;;;;;;2112074;28;1943;-73
2022/01/05 04:13:15;;;;;;;;;;;;;;;;;;2107281;28;977;-73
2022/01/05 04:14:17;;;;;;;;;;;;;;;;;;2106696;28;954;-73
2022/01/05 04:15:18;;;;;;;;;;;;;;;;;;2108878;28;1774;-72
2022/01/05 04:16:19;;;;;;;;;;;;;;;;;;2107188;28;926;-72
2022/01/05 04:17:21;;;;;;;;;;;;;;;;;;2107231;28;1451;-73
2022/01/05 04:18:22;;;;;;;;;;;;;;;;;;2110278;28;1967;-72
2022/01/05 04:19:23;;;;;;;;;;;;;;;;;;2115576;28;1077;-73
2022/01/05 04:20:25;;;;;;;;;;;;;;;;;;2115702;28;1057;-73
2022/01/05 04:21:26;;;;;;;;;;;;;;;;;;2110084;28;1961;-72
2022/01/05 04:22:27;;;;;;;;;;;;;;;;;;2107292;28;823;-73
2022/01/05 04:23:29;;;;;;;;;;;;;;;;;;2107244;28;933;-73
2022/01/05 04:24:31;;;;;;;;;;;;;;;;;;2111807;28;1895;-73
2022/01/05 04:25:33;;;;;;;;;;;;;;;;;;2115673;28;999;-73
2022/01/05 04:26:33;;;;;;;;;;;;;;;;;;2115589;28;1119;-72
2022/01/05 04:27:35;;;;;;;;;;;;;;;;;;2114150;28;1869;-73
2022/01/05 04:28:36;;;;;;;;;;;;;;;;;;2115789;28;901;-73
2022/01/05 04:29:38;;;;;;;;;;;;;;;;;;2115432;28;894;-72
2022/01/05 04:30:39;;;;;;;;;;;;;;;;;;2108275;28;1974;-73
2022/01/05 04:31:40;;;;;;;;;;;;;;;;;;2107131;28;818;-73
2022/01/05 04:32:41;;;;;;;;;;;;;;;;;;2107027;28;1033;-72
2022/01/05 04:33:42;;;;;;;;;;;;;;;;;;2106868;28;1999;-72
2022/01/05 04:34:43;;;;;;;;;;;;;;;;;;2107131;28;843;-72
2022/01/05 04:35:44;;;;;;;;;;;;;;;;;;2107175;28;863;-72
2022/01/05 04:36:46;;;;;;;;;;;;;;;;;;2106646;28;906;-73
2022/01/05 04:37:46;;;;;;;;;;;;;;;;;;2107293;28;1494;-72
2022/01/05 04:38:48;;;;;;;;;;;;;;;;;;2106320;28;1977;-72
2022/01/05 04:39:50;;;;;;;;;;;;;;;;;;2106123;28;1953;-72
2022/01/05 04:40:52;;;;;;;;;;;;;;;;;;2107121;28;811;-73
2022/01/05 04:41:52;;;;;;;;;;;;;;;;;;2106024;28;1924;-73
2022/01/05 04:42:54;;;;;;;;;;;;;;;;;;2106486;28;930;-72
2022/01/05 04:43:54;;;;;;;;;;;;;;;;;;2107205;28;810;-73
2022/01/05 04:44:56;;;;;;;;;;;;;;;;;;2105986;28;1892;-72
2022/01/05 04:45:56;;;;;;;;;;;;;;;;;;2114788;28;1052;-72
2022/01/05 04:46:58;;;;;;;;;;;;;;;;;;2107061;28;1140;-73
2022/01/05 04:47:58;;;;;;;;;;;;;;;;;;2106702;28;1836;-73
2022/01/05 04:49:00;;;;;;;;;;;;;;;;;;2106830;28;994;-73
2022/01/05 04:50:00;;;;;;;;;;;;;;;;;;2107193;28;815;-73
2022/01/05 04:51:02;;;;;;;;;;;;;;;;;;2107019;28;878;-73
2022/01/05 04:52:03;;;;;;;;;;;;;;;;;;2107066;28;985;-72
2022/01/05 04:53:04;;;;;;;;;;;;;;;;;;2107103;28;862;-73
2022/01/05 04:54:05;;;;;;;;;;;;;;;;;;2106990;28;2029;-73
2022/01/05 04:55:09;;;;;;;;;;;;;;;;;;2106811;28;1620;-73
2022/01/05 04:56:10;;;;;;;;;;;;;;;;;;2107119;28;971;-73
2022/01/05 04:57:11;;;;;;;;;;;;;;;;;;2105727;28;1889;-73
2022/01/05 04:58:13;;;;;;;;;;;;;;;;;;2106360;28;950;-73
2022/01/05 04:59:14;;;;;;;;;;;;;;;;;;2107024;28;1959;-72
2022/01/05 05:00:15;;;;;;;;;;;;;;;;;;2108530;28;1335;-73
2022/01/05 05:01:16;;;;;;;;;;;;;;;;;;2115508;28;926;-72
2022/01/05 05:02:17;;;;;;;;;;;;;;;;;;2115502;28;908;-73
2022/01/05 05:03:18;;;;;;;;;;;;;;;;;;2111079;28;2000;-72
2022/01/05 05:04:20;;;;;;;;;;;;;;;;;;2107121;28;1036;-73
2022/01/05 05:05:20;;;;;;;;;;;;;;;;;;2106972;28;966;-73
2022/01/05 05:06:22;;;;;;;;;;;;;;;;;;2106493;28;2003;-72
2022/01/05 05:07:23;;;;;;;;;;;;;;;;;;2106966;28;1016;-73
2022/01/05 05:08:24;;;;;;;;;;;;;;;;;;2107124;28;1045;-73
2022/01/05 05:09:25;;;;;;;;;;;;;;;;;;2107055;28;906;-73
2022/01/05 05:10:28;;;;;;;;;;;;;;;;;;2106248;28;1518;-72
2022/01/05 05:11:29;;;;;;;;;;;;;;;;;;2107985;28;1713;-72
2022/01/05 05:12:30;;;;;;;;;;;;;;;;;;2108971;28;1690;-71
2022/01/05 05:13:31;;;;;;;;;;;;;;;;;;2109941;28;1272;-72
2022/01/05 05:14:32;;;;;;;;;;;;;;;;;;2111824;28;1343;-72
2022/01/05 05:15:34;;;;;;;;;;;;;;;;;;2109700;28;1326;-72
2022/01/05 05:16:34;;;;;;;;;;;;;;;;;;2109692;28;1330;-71
2022/01/05 05:17:36;;;;;;;;;;;;;;;;;;2115212;28;1072;-71
2022/01/05 05:18:36;;;;;;;;;;;;;;;;;;2113967;28;2061;-71
2022/01/05 05:19:38;;;;;;;;;;;;;;;;;;2115368;28;873;-73
2022/01/05 05:20:40;;;;;;;;;;;;;;;;;;2115257;28;946;-71
2022/01/05 05:21:42;;;;;;;;;;;;;;;;;;2107780;28;1832;-73
2022/01/05 05:22:42;;;;;;;;;;;;;;;;;;2107043;28;945;-71
2022/01/05 05:23:44;;;;;;;;;;;;;;;;;;2106955;28;791;-71
2022/01/05 05:24:44;;;;;;;;;;;;;;;;;;2111619;28;1377;-71
2022/01/05 05:25:47;;;;;;;;;;;;;;;;;;2109488;28;1301;-71
2022/01/05 05:26:48;;;;;;;;;;;;;;;;;;2111412;28;1361;-71
2022/01/05 05:27:49;;;;;;;;;;;;;;;;;;2109206;28;1765;-71
2022/01/05 05:28:50;;;;;;;;;;;;;;;;;;2109490;28;1231;-71
2022/01/05 05:29:52;;;;;;;;;;;;;;;;;;2112048;28;1654;-71
2022/01/05 05:30:53;;;;;;;;;;;;;;;;;;2109745;28;1242;-71
2022/01/05 05:31:55;;;;;;;;;;;;;;;;;;2111691;28;1254;-71
2022/01/05 05:32:57;;;;;;;;;;;;;;;;;;2110328;28;1475;-72
2022/01/05 05:33:59;;;;;;;;;;;;;;;;;;2111247;28;1293;-71
2022/01/05 05:34:59;;;;;;;;;;;;;;;;;;2110678;28;1324;-71
2022/01/05 05:36:02;;;;;;;;;;;;;;;;;;2110356;28;1874;-70
2022/01/05 05:37:02;;;;;;;;;;;;;;;;;;2111191;28;1387;-71
2022/01/05 05:38:04;;;;;;;;;;;;;;;;;;2110414;28;1325;-71
2022/01/05 05:39:05;;;;;;;;;;;;;;;;;;2111521;28;1902;-71
2022/01/05 05:40:07;;;;;;;;;;;;;;;;;;2109822;28;1254;-71
2022/01/05 05:41:09;;;;;;;;;;;;;;;;;;2111586;28;1342;-71
2022/01/05 05:42:10;;;;;;;;;;;;;;;;;;2109539;28;1245;-71
2022/01/05 05:43:12;;;;;;;;;;;;;;;;;;2112046;28;1476;-71
2022/01/05 05:44:13;;;;;;;;;;;;;;;;;;2109935;28;1347;-72
2022/01/05 05:45:14;;;;;;;;;;;;;;;;;;2110211;28;1722;-71
2022/01/05 05:46:15;;;;;;;;;;;;;;;;;;2110266;28;1279;-71
2022/01/05 05:47:16;;;;;;;;;;;;;;;;;;2111445;28;1258;-72
2022/01/05 05:48:17;;;;;;;;;;;;;;;;;;2110104;28;1938;-71
2022/01/05 05:49:18;;;;;;;;;;;;;;;;;;2112410;28;1259;-71
2022/01/05 05:50:19;;;;;;;;;;;;;;;;;;2112465;28;1203;-71
2022/01/05 05:51:21;;;;;;;;;;;;;;;;;;2112278;28;1278;-71
2022/01/05 05:52:21;;;;;;;;;;;;;;;;;;2112503;28;1274;-71
2022/01/05 05:53:24;;;;;;;;;;;;;;;;;;2112085;28;1353;-72
2022/01/05 05:54:24;;;;;;;;;;;;;;;;;;2113072;28;1708;-71
2022/01/05 05:55:26;;;;;;;;;;;;;;;;;;2112774;28;1408;-72
2022/01/05 05:56:27;;;;;;;;;;;;;;;;;;2113798;28;1234;-71
2022/01/05 05:57:29;;;;;;;;;;;;;;;;;;2110695;28;1903;-71
2022/01/05 05:58:30;;;;;;;;;;;;;;;;;;2108512;28;878;-71
2022/01/05 05:59:31;;;;;;;;;;;;;;;;;;2108125;28;1976;-71
2022/01/05 06:00:32;;;;;;;;;;;;;;;;;;2112715;28;1847;-71
2022/01/05 06:01:33;;;;;;;;;;;;;;;;;;2116731;28;1065;-71
2022/01/05 06:02:34;;;;;;;;;;;;;;;;;;2116802;28;883;-71
2022/01/05 06:03:35;;;;;;;;;;;;;;;;;;2110252;28;1879;-70
2022/01/05 06:04:36;;;;;;;;;;;;;;;;;;2108327;28;911;-71
2022/01/05 06:05:37;;;;;;;;;;;;;;;;;;2108256;28;910;-71
2022/01/05 06:06:39;;;;;;;;;;;;;;;;;;2113646;28;1907;-71
2022/01/05 06:07:39;;;;;;;;;;;;;;;;;;2116687;28;843;-70
2022/01/05 06:08:42;;;;;;;;;;;;;;;;;;2116858;28;857;-71
2022/01/05 06:09:43;;;;;;;;;;;;;;;;;;2108133;28;1872;-70
2022/01/05 06:10:44;;;;;;;;;;;;;;;;;;2107790;28;962;-71
2022/01/05 06:11:47;;;;;;;;;;;;;;;;;;2107464;28;1180;-71
2022/01/05 06:12:48;;;;;;;;;;;;;;;;;;2114341;28;1715;-71
2022/01/05 06:13:50;;;;;;;;;;;;;;;;;;2116227;28;1265;-71
2022/01/05 06:14:51;;;;;;;;;;;;;;;;;;2116329;28;1220;-71
2022/01/05 06:15:52;;;;;;;;;;;;;;;;;;2108380;28;1076;-70
2022/01/05 06:16:53;;;;;;;;;;;;;;;;;;2108186;28;926;-71
2022/01/05 06:17:54;;;;;;;;;;;;;;;;;;2107731;28;1922;-71
2022/01/05 06:18:55;;;;;;;;;;;;;;;;;;2108131;28;1909;-71
2022/01/05 06:19:56;;;;;;;;;;;;;;;;;;2108323;28;835;-71
2022/01/05 06:20:58;;;;;;;;;;;;;;;;;;2107494;28;1848;-71
2022/01/05 06:21:59;;;;;;;;;;;;;;;;;;2108176;28;1004;-71
2022/01/05 06:23:00;;;;;;;;;;;;;;;;;;2108266;28;911;-71
2022/01/05 06:24:01;;;;;;;;;;;;;;;;;;2107984;28;1825;-70
2022/01/05 06:25:02;;;;;;;;;;;;;;;;;;2116613;28;1120;-71
2022/01/05 06:26:03;;;;;;;;;;;;;;;;;;2116624;28;970;-71
2022/01/05 06:27:08;;;;;;;;;;;;;;;;;;2114081;28;2069;-70
2022/01/05 06:28:11;;;;;;;;;;;;;;;;;;2108268;28;922;-71
2022/01/05 06:29:13;;;;;;;;;;;;;;;;;;2108160;28;925;-71
2022/01/05 06:30:14;;;;;;;;;;;;;;;;;;2107573;28;2041;-70
2022/01/05 06:31:15;;;;;;;;;;;;;;;;;;2107977;28;1104;-70
2022/01/05 06:32:16;;;;;;;;;;;;;;;;;;2108158;28;942;-71
2022/01/05 06:33:17;;;;;;;;;;;;;;;;;;2110332;28;2201;-71
2022/01/05 06:34:19;;;;;;;;;;;;;;;;;;2116469;28;976;-71
2022/01/05 06:35:23;;;;;;;;;;;;;;;;;;2116476;28;926;-71
2022/01/05 06:36:25;;;;;;;;;;;;;;;;;;2115964;28;1230;-71
2022/01/05 06:37:25;;;;;;;;;;;;;;;;;;2111075;28;1293;-71
2022/01/05 06:38:27;;;;;;;;;;;;;;;;;;2112713;28;1369;-71
2022/01/05 06:39:27;;;;;;;;;;;;;;;;;;2110527;28;1977;-70
2022/01/05 06:40:29;;;;;;;;;;;;;;;;;;2111136;28;1266;-71
2022/01/05 06:41:30;;;;;;;;;;;;;;;;;;2110517;28;1326;-71
2022/01/05 06:42:33;;;;;;;;;;;;;;;;;;2107274;28;1825;-71
2022/01/05 06:43:34;;;;;;;;;;;;;;;;;;2107386;28;1077;-71
2022/01/05 06:44:35;;;;;;;;;;;;;;;;;;2106707;28;1115;-71
2022/01/05 06:45:37;;;;;;;;;;;;;;;;;;2106124;28;1845;-71
2022/01/05 06:46:37;;;;;;;;;;;;;;;;;;2107167;28;1117;-70
2022/01/05 06:47:39;;;;;;;;;;;;;;;;;;2107311;28;874;-71
2022/01/05 06:48:39;;;;;;;;;;;;;;;;;;2106722;28;1975;-71
2022/01/05 06:49:41;;;;;;;;;;;;;;;;;;2107185;28;1073;-71
2022/01/05 06:50:42;;;;;;;;;;;;;;;;;;2107260;28;983;-71
2022/01/05 06:51:43;;;;;;;;;;;;;;;;;;2106651;28;2057;-71
2022/01/05 06:52:44;;;;;;;;;;;;;;;;;;2107286;28;1014;-71
2022/01/05 06:53:46;;;;;;;;;;;;;;;;;;2107202;28;899;-71
2022/01/05 06:54:46;;;;;;;;;;;;;;;;;;2105911;28;1875;-70
2022/01/05 06:55:48;;;;;;;;;;;;;;;;;;2106528;28;824;-71
2022/01/05 06:56:49;;;;;;;;;;;;;;;;;;2107165;28;1367;-71
2022/01/05 06:57:52;;;;;;;;;;;;;;;;;;2106651;28;1849;-71
2022/01/05 06:58:52;;;;;;;;;;;;;;;;;;2107745;28;803;-71
2022/01/05 06:59:54;;;;;;;;;;;;;;;;;;2106833;28;1923;-71
2022/01/05 07:00:55;;;;;;;;;;;;;;;;;;2115975;28;895;-70
2022/01/05 07:01:56;;;;;;;;;;;;;;;;;;2116320;28;771;-70
2022/01/05 07:02:57;;;;;;;;;;;;;;;;;;2115052;28;2110;-70
2022/01/05 07:03:59;;;;;;;;;;;;;;;;;;2107722;28;882;-71
2022/01/05 07:05:01;;;;;;;;;;;;;;;;;;2107808;28;897;-71
2022/01/05 07:06:02;;;;;;;;;;;;;;;;;;2107818;28;1057;-71
2022/01/05 07:07:03;;;;;;;;;;;;;;;;;;2107777;28;895;-71
2022/01/05 07:08:05;;;;;;;;;;;;;;;;;;2107842;28;909;-71
2022/01/05 07:09:05;;;;;;;;;;;;;;;;;;2107186;28;2019;-71
2022/01/05 07:10:08;;;;;;;;;;;;;;;;;;2107761;28;918;-71